Hayden, CO

1:06 AM MDT on August 20, 2014 (GMT -0600)
Yampa Valley | Change Station
CLOSE
Current Station
Airport
Location: Hayden,
Elevation: 6601 ft
Nearby Weather Stations
Active Advisory: Special Statement Active Notice: Public Information Statement

Elev 6601 ft 40.48 °N, 107.22 °W | Updated 11 minutes ago

Overcast
Overcast
55 °F
Feels Like 55 °F
N
13
Wind Variable Wind from East

Today
High -- | Low -- °F
--% Chance of Precip.
Yesterday
High -- | Low -- °F
Precip. -- in
6:24 AM 7:59 PM
Waning Crescent, 24% visible
Pressure 30.06 in
Visibility 10.0 miles
Clouds Overcast 8000 ft
Dew Point 52 °F
Humidity 88%
Rainfall 0.09 in
Snow Depth Not available.
UV 0 out of 12
Pollen 7.40 out of 12
Air Quality Not available.
Flu Activity Not available.
METAR KHDN 200655Z AUTO 10011KT 10SM OVC080 13/11 A3006 RMK AO1 P0003

More Conditions Fewer Conditions

Pressure 30.06 in
Visibility 10.0 miles
Clouds Overcast 8000 ft
Dew Point 52 °F
Humidity 88%
Rainfall 0.09 in
Snow Depth Not available.
UV 0 out of 12
Pollen 7.40 out of 12
Air Quality Not available.
Flu Activity Not available.
METAR KHDN 200655Z AUTO 10011KT 10SM OVC080 13/11 A3006 RMK AO1 P0003

More Conditions Fewer Conditions

10-Day Weather Forecast

Almanac

Astronomy

Aug. 20, 2014 Rise Set
Actual Time 6:24 AM MDT 7:59 PM MDT
Civil Twilight 5:55 AM MDT 8:28 PM MDT
Nautical Twilight 5:21 AM MDT 9:02 PM MDT
Astronomical Twilight 4:43 AM MDT 9:39 PM MDT
Moon 2:06 AM MDT 4:47 PM MDT
Length of Visible Light 14h 32m
Length of Day
13h 34m
Tomorrow will be 2m 26s shorter.
Waning Crescent, 24% of the Moon is Illuminated
Today
Waning Crescent
Aug 25
New
Sep 2
First Quarter
Sep 8
Full
Sep 15
Last Quarter

Today's Extremes

State Highs State Lows

Community

WunderPhotos

Upload Photos

1,745,592 photos uploaded!

Nearby

Snow Depth

Station Depth Elevation
Ripple Creek 0 in 10340 ft
Dry Lake 0 in 8400 ft
Rabbit Ears 0 in 9400 ft
Tower 0 in 10500 ft
Bear RIver 0 in 9080 ft

Earthquake Activity

City Distance Mag. Time & Date
No recent earthquake activity has been reported nearby.
Minimum magnitude displayed is 2.5.

Coastal Water Temperatures

Place Temperature
No Stations Reporting

Nearby Weather Stations